sensor_id;sensor_type;location;lat;lon;timestamp;temperature;humidity
10443;DHT22;5269;51.146;16.986;2023-11-21T00:06:10;8.30;99.90
10443;DHT22;5269;51.146;16.986;2023-11-21T00:12:09;8.30;99.90
10443;DHT22;5269;51.146;16.986;2023-11-21T00:18:40;8.20;99.90
10443;DHT22;5269;51.146;16.986;2023-11-21T00:24:42;8.20;99.90
10443;DHT22;5269;51.146;16.986;2023-11-21T00:31:08;8.20;99.90
10443;DHT22;5269;51.146;16.986;2023-11-21T00:36:28;8.20;99.90
10443;DHT22;5269;51.146;16.986;2023-11-21T00:38:58;8.10;99.90
10443;DHT22;5269;51.146;16.986;2023-11-21T00:41:31;8.20;99.90
10443;DHT22;5269;51.146;16.986;2023-11-21T00:44:08;8.20;99.90
10443;DHT22;5269;51.146;16.986;2023-11-21T00:46:37;8.10;99.90
10443;DHT22;5269;51.146;16.986;2023-11-21T00:49:10;8.10;99.90
10443;DHT22;5269;51.146;16.986;2023-11-21T01:02:50;8.10;99.90
10443;DHT22;5269;51.146;16.986;2023-11-21T01:38:05;8.00;99.90
10443;DHT22;5269;51.146;16.986;2023-11-21T01:40:59;8.00;99.90
10443;DHT22;5269;51.146;16.986;2023-11-21T07:07:50;7.90;99.90
10443;DHT22;5269;51.146;16.986;2023-11-21T13:02:43;5.40;99.90
10443;DHT22;5269;51.146;16.986;2023-11-21T13:05:40;5.50;99.90
10443;DHT22;5269;51.146;16.986;2023-11-21T13:10:21;5.40;99.90
10443;DHT22;5269;51.146;16.986;2023-11-21T13:14:51;5.10;99.90
10443;DHT22;5269;51.146;16.986;2023-11-21T13:17:20;5.10;99.90
10443;DHT22;5269;51.146;16.986;2023-11-21T13:20:11;5.00;99.90
10443;DHT22;5269;51.146;16.986;2023-11-21T13:23:10;4.90;99.90
10443;DHT22;5269;51.146;16.986;2023-11-21T13:29:21;4.70;99.90
10443;DHT22;5269;51.146;16.986;2023-11-21T13:35:31;4.70;99.90
10443;DHT22;5269;51.146;16.986;2023-11-21T13:38:18;4.60;99.90
10443;DHT22;5269;51.146;16.986;2023-11-21T13:41:00;4.50;99.90
10443;DHT22;5269;51.146;16.986;2023-11-21T13:43:42;4.40;99.90
10443;DHT22;5269;51.146;16.986;2023-11-21T13:46:30;4.40;99.90
10443;DHT22;5269;51.146;16.986;2023-11-21T13:49:02;4.30;99.90
10443;DHT22;5269;51.146;16.986;2023-11-21T13:51:51;4.20;99.90
10443;DHT22;5269;51.146;16.986;2023-11-21T13:54:20;4.20;99.90
10443;DHT22;5269;51.146;16.986;2023-11-21T13:56:51;4.00;99.90
10443;DHT22;5269;51.146;16.986;2023-11-21T14:01:53;4.00;99.90
10443;DHT22;5269;51.146;16.986;2023-11-21T14:04:42;3.90;99.90
10443;DHT22;5269;51.146;16.986;2023-11-21T14:07:41;3.90;99.90
10443;DHT22;5269;51.146;16.986;2023-11-21T14:10:40;3.90;99.90
10443;DHT22;5269;51.146;16.986;2023-11-21T14:13:14;3.70;99.90
10443;DHT22;5269;51.146;16.986;2023-11-21T14:15:52;3.80;99.90
10443;DHT22;5269;51.146;16.986;2023-11-21T14:18:50;3.70;99.90
10443;DHT22;5269;51.146;16.986;2023-11-21T14:21:30;3.70;99.90
10443;DHT22;5269;51.146;16.986;2023-11-21T14:24:01;3.60;99.90
10443;DHT22;5269;51.146;16.986;2023-11-21T14:26:30;3.60;99.90
10443;DHT22;5269;51.146;16.986;2023-11-21T14:29:03;3.50;99.90
10443;DHT22;5269;51.146;16.986;2023-11-21T14:34:52;3.40;99.90
10443;DHT22;5269;51.146;16.986;2023-11-21T14:37:21;3.40;99.90
10443;DHT22;5269;51.146;16.986;2023-11-21T14:39:52;3.30;99.90
10443;DHT22;5269;51.146;16.986;2023-11-21T14:42:23;3.40;99.90
10443;DHT22;5269;51.146;16.986;2023-11-21T14:45:07;3.30;99.90
10443;DHT22;5269;51.146;16.986;2023-11-21T14:47:40;3.30;99.90
10443;DHT22;5269;51.146;16.986;2023-11-21T14:50:10;3.20;99.90
10443;DHT22;5269;51.146;16.986;2023-11-21T14:52:52;3.20;99.90
10443;DHT22;5269;51.146;16.986;2023-11-21T14:55:54;3.20;99.90
10443;DHT22;5269;51.146;16.986;2023-11-21T14:58:31;3.20;99.90
10443;DHT22;5269;51.146;16.986;2023-11-21T15:01:00;3.20;99.90
10443;DHT22;5269;51.146;16.986;2023-11-21T15:03:32;3.20;99.90
10443;DHT22;5269;51.146;16.986;2023-11-21T15:06:22;3.20;99.90
10443;DHT22;5269;51.146;16.986;2023-11-21T15:09:22;3.20;99.90
10443;DHT22;5269;51.146;16.986;2023-11-21T15:12:12;3.20;99.90
10443;DHT22;5269;51.146;16.986;2023-11-21T15:14:52;3.10;99.90
10443;DHT22;5269;51.146;16.986;2023-11-21T15:17:21;3.10;99.90
10443;DHT22;5269;51.146;16.986;2023-11-21T15:19:52;3.10;99.90
10443;DHT22;5269;51.146;16.986;2023-11-21T15:22:23;3.00;99.90
10443;DHT22;5269;51.146;16.986;2023-11-21T15:25:02;3.00;99.90
10443;DHT22;5269;51.146;16.986;2023-11-21T15:27:46;3.00;99.90
10443;DHT22;5269;51.146;16.986;2023-11-21T15:30:20;2.90;99.90
10443;DHT22;5269;51.146;16.986;2023-11-21T15:33:13;2.90;99.90
10443;DHT22;5269;51.146;16.986;2023-11-21T15:36:22;2.90;99.90
10443;DHT22;5269;51.146;16.986;2023-11-21T15:39:00;2.80;99.90
10443;DHT22;5269;51.146;16.986;2023-11-21T15:41:41;2.80;99.90
10443;DHT22;5269;51.146;16.986;2023-11-21T15:50:53;2.60;99.90
10443;DHT22;5269;51.146;16.986;2023-11-21T16:10:25;2.70;99.90
10443;DHT22;5269;51.146;16.986;2023-11-21T16:13:10;2.70;99.90
10443;DHT22;5269;51.146;16.986;2023-11-21T16:15:52;2.60;99.90
10443;DHT22;5269;51.146;16.986;2023-11-21T16:19:01;2.60;99.90
10443;DHT22;5269;51.146;16.986;2023-11-21T16:22:23;2.60;99.90
10443;DHT22;5269;51.146;16.986;2023-11-21T16:25:42;2.40;99.90
10443;DHT22;5269;51.146;16.986;2023-11-21T16:28:31;2.30;99.90
10443;DHT22;5269;51.146;16.986;2023-11-21T16:34:31;2.20;99.90
10443;DHT22;5269;51.146;16.986;2023-11-21T16:37:20;2.10;99.90
10443;DHT22;5269;51.146;16.986;2023-11-21T16:40:02;2.20;99.90
10443;DHT22;5269;51.146;16.986;2023-11-21T16:42:52;2.10;99.90
10443;DHT22;5269;51.146;16.986;2023-11-21T16:52:03;2.00;99.90
10443;DHT22;5269;51.146;16.986;2023-11-21T16:55:08;1.90;99.90
10443;DHT22;5269;51.146;16.986;2023-11-21T16:57:40;1.90;99.90
10443;DHT22;5269;51.146;16.986;2023-11-21T17:00:14;1.90;99.90
10443;DHT22;5269;51.146;16.986;2023-11-21T17:02:54;1.90;99.90
10443;DHT22;5269;51.146;16.986;2023-11-21T17:05:42;1.80;99.90
10443;DHT22;5269;51.146;16.986;2023-11-21T17:08:10;1.80;99.90
10443;DHT22;5269;51.146;16.986;2023-11-21T17:10:40;1.80;99.90
10443;DHT22;5269;51.146;16.986;2023-11-21T17:13:11;1.70;99.90
10443;DHT22;5269;51.146;16.986;2023-11-21T17:21:06;1.70;99.90
10443;DHT22;5269;51.146;16.986;2023-11-21T17:23:42;1.70;99.90
10443;DHT22;5269;51.146;16.986;2023-11-21T17:26:11;1.70;99.90
10443;DHT22;5269;51.146;16.986;2023-11-21T17:28:41;1.70;99.90
10443;DHT22;5269;51.146;16.986;2023-11-21T17:31:10;1.70;99.90
10443;DHT22;5269;51.146;16.986;2023-11-21T17:33:40;1.80;99.90
10443;DHT22;5269;51.146;16.986;2023-11-21T17:36:11;1.80;99.90
10443;DHT22;5269;51.146;16.986;2023-11-21T17:38:42;1.70;99.90
10443;DHT22;5269;51.146;16.986;2023-11-21T17:41:10;1.70;99.90
10443;DHT22;5269;51.146;16.986;2023-11-21T17:43:39;1.70;99.90
10443;DHT22;5269;51.146;16.986;2023-11-21T17:46:07;1.70;99.90
10443;DHT22;5269;51.146;16.986;2023-11-21T17:48:39;1.70;99.90
10443;DHT22;5269;51.146;16.986;2023-11-21T17:54:00;1.70;99.90
10443;DHT22;5269;51.146;16.986;2023-11-21T17:56:33;1.70;99.90
10443;DHT22;5269;51.146;16.986;2023-11-21T17:59:01;1.70;99.90
10443;DHT22;5269;51.146;16.986;2023-11-21T18:01:39;1.60;99.90
10443;DHT22;5269;51.146;16.986;2023-11-21T18:04:12;1.60;99.90
10443;DHT22;5269;51.146;16.986;2023-11-21T18:06:41;1.70;99.90
10443;DHT22;5269;51.146;16.986;2023-11-21T18:09:13;1.70;99.90
10443;DHT22;5269;51.146;16.986;2023-11-21T18:11:41;1.60;99.90
10443;DHT22;5269;51.146;16.986;2023-11-21T18:14:08;1.60;99.90
10443;DHT22;5269;51.146;16.986;2023-11-21T18:16:41;1.70;99.90
10443;DHT22;5269;51.146;16.986;2023-11-21T18:19:10;1.60;99.90
10443;DHT22;5269;51.146;16.986;2023-11-21T18:21:41;1.60;99.90
10443;DHT22;5269;51.146;16.986;2023-11-21T18:24:10;1.50;99.90
10443;DHT22;5269;51.146;16.986;2023-11-21T18:26:43;1.50;99.90
10443;DHT22;5269;51.146;16.986;2023-11-21T18:29:14;1.30;99.90
10443;DHT22;5269;51.146;16.986;2023-11-21T18:31:54;1.40;99.90
10443;DHT22;5269;51.146;16.986;2023-11-21T18:34:30;1.50;99.90
10443;DHT22;5269;51.146;16.986;2023-11-21T18:37:03;1.60;99.90
10443;DHT22;5269;51.146;16.986;2023-11-21T18:39:31;1.40;99.90
10443;DHT22;5269;51.146;16.986;2023-11-21T18:41:59;1.40;99.90
10443;DHT22;5269;51.146;16.986;2023-11-21T18:44:30;1.30;99.90
10443;DHT22;5269;51.146;16.986;2023-11-21T18:47:03;1.30;99.90
10443;DHT22;5269;51.146;16.986;2023-11-21T18:49:30;1.30;99.90
10443;DHT22;5269;51.146;16.986;2023-11-21T18:51:57;1.30;99.90
10443;DHT22;5269;51.146;16.986;2023-11-21T18:54:40;1.30;99.90
10443;DHT22;5269;51.146;16.986;2023-11-21T18:57:13;1.30;99.90
10443;DHT22;5269;51.146;16.986;2023-11-21T18:59:43;1.30;99.90
10443;DHT22;5269;51.146;16.986;2023-11-21T19:02:42;1.20;99.90
10443;DHT22;5269;51.146;16.986;2023-11-21T19:05:09;1.20;99.90
10443;DHT22;5269;51.146;16.986;2023-11-21T19:07:36;1.20;99.90
10443;DHT22;5269;51.146;16.986;2023-11-21T19:10:14;1.20;99.90
10443;DHT22;5269;51.146;16.986;2023-11-21T19:12:54;1.10;99.90
10443;DHT22;5269;51.146;16.986;2023-11-21T19:15:41;1.20;99.90
10443;DHT22;5269;51.146;16.986;2023-11-21T19:18:39;1.20;99.90
10443;DHT22;5269;51.146;16.986;2023-11-21T19:21:52;1.20;99.90
10443;DHT22;5269;51.146;16.986;2023-11-21T19:24:12;1.30;99.90
10443;DHT22;5269;51.146;16.986;2023-11-21T19:26:51;1.20;99.90
10443;DHT22;5269;51.146;16.986;2023-11-21T19:29:21;1.20;99.90
10443;DHT22;5269;51.146;16.986;2023-11-21T19:31:50;1.20;99.90
10443;DHT22;5269;51.146;16.986;2023-11-21T19:34:23;1.10;99.90
10443;DHT22;5269;51.146;16.986;2023-11-21T19:36:50;1.10;99.90
10443;DHT22;5269;51.146;16.986;2023-11-21T19:39:20;1.20;99.90
10443;DHT22;5269;51.146;16.986;2023-11-21T19:41:52;1.10;99.90
10443;DHT22;5269;51.146;16.986;2023-11-21T19:44:39;1.10;99.90
10443;DHT22;5269;51.146;16.986;2023-11-21T19:47:11;1.10;99.90
10443;DHT22;5269;51.146;16.986;2023-11-21T19:49:40;1.10;99.90
10443;DHT22;5269;51.146;16.986;2023-11-21T19:52:13;1.20;99.90
10443;DHT22;5269;51.146;16.986;2023-11-21T19:54:42;1.30;99.90
10443;DHT22;5269;51.146;16.986;2023-11-21T19:57:13;1.20;99.90
10443;DHT22;5269;51.146;16.986;2023-11-21T19:59:40;1.10;99.90
10443;DHT22;5269;51.146;16.986;2023-11-21T20:02:08;0.90;99.90
10443;DHT22;5269;51.146;16.986;2023-11-21T20:04:39;0.90;99.90
10443;DHT22;5269;51.146;16.986;2023-11-21T20:07:13;0.90;99.90
10443;DHT22;5269;51.146;16.986;2023-11-21T20:09:48;0.90;99.90
10443;DHT22;5269;51.146;16.986;2023-11-21T20:12:22;1.00;99.90
10443;DHT22;5269;51.146;16.986;2023-11-21T20:14:52;1.00;99.90
10443;DHT22;5269;51.146;16.986;2023-11-21T20:17:22;1.00;99.90
10443;DHT22;5269;51.146;16.986;2023-11-21T20:19:52;0.90;99.90
10443;DHT22;5269;51.146;16.986;2023-11-21T20:22:20;0.90;99.90
10443;DHT22;5269;51.146;16.986;2023-11-21T20:24:47;0.90;99.90
10443;DHT22;5269;51.146;16.986;2023-11-21T20:27:14;0.90;99.90
10443;DHT22;5269;51.146;16.986;2023-11-21T20:29:44;0.90;99.90
10443;DHT22;5269;51.146;16.986;2023-11-21T20:32:14;1.00;99.90
10443;DHT22;5269;51.146;16.986;2023-11-21T20:34:42;1.00;99.90
10443;DHT22;5269;51.146;16.986;2023-11-21T20:37:11;1.00;99.90
10443;DHT22;5269;51.146;16.986;2023-11-21T20:39:55;1.00;99.90
10443;DHT22;5269;51.146;16.986;2023-11-21T20:42:52;0.90;99.90
10443;DHT22;5269;51.146;16.986;2023-11-21T20:45:32;0.90;99.90
10443;DHT22;5269;51.146;16.986;2023-11-21T20:48:04;0.90;99.90
10443;DHT22;5269;51.146;16.986;2023-11-21T20:50:36;0.90;99.90
10443;DHT22;5269;51.146;16.986;2023-11-21T20:53:32;0.80;99.90
10443;DHT22;5269;51.146;16.986;2023-11-21T20:56:20;0.90;99.90
10443;DHT22;5269;51.146;16.986;2023-11-21T20:59:00;1.00;99.90
10443;DHT22;5269;51.146;16.986;2023-11-21T21:01:42;1.00;99.90
10443;DHT22;5269;51.146;16.986;2023-11-21T21:04:12;0.90;99.90
10443;DHT22;5269;51.146;16.986;2023-11-21T21:07:00;0.90;99.90
10443;DHT22;5269;51.146;16.986;2023-11-21T21:09:34;0.70;99.90
10443;DHT22;5269;51.146;16.986;2023-11-21T21:12:22;0.70;99.90
10443;DHT22;5269;51.146;16.986;2023-11-21T21:18:32;0.80;99.90
10443;DHT22;5269;51.146;16.986;2023-11-21T21:21:23;0.90;99.90
10443;DHT22;5269;51.146;16.986;2023-11-21T21:24:05;0.80;99.90
10443;DHT22;5269;51.146;16.986;2023-11-21T21:26:42;0.80;99.90
10443;DHT22;5269;51.146;16.986;2023-11-21T21:29:11;0.70;99.90
10443;DHT22;5269;51.146;16.986;2023-11-21T21:31:44;0.70;99.90
10443;DHT22;5269;51.146;16.986;2023-11-21T21:34:23;0.70;99.90
10443;DHT22;5269;51.146;16.986;2023-11-21T21:36:52;0.70;99.90
10443;DHT22;5269;51.146;16.986;2023-11-21T21:39:40;0.70;99.90
10443;DHT22;5269;51.146;16.986;2023-11-21T21:42:31;0.70;99.90
10443;DHT22;5269;51.146;16.986;2023-11-21T21:48:11;0.70;99.90
10443;DHT22;5269;51.146;16.986;2023-11-21T21:51:02;0.70;99.90
10443;DHT22;5269;51.146;16.986;2023-11-21T22:08:02;0.50;99.90
10443;DHT22;5269;51.146;16.986;2023-11-21T22:10:31;0.60;99.90
10443;DHT22;5269;51.146;16.986;2023-11-21T22:13:04;0.60;99.90
10443;DHT22;5269;51.146;16.986;2023-11-21T22:15:43;0.60;99.90
10443;DHT22;5269;51.146;16.986;2023-11-21T22:18:12;0.50;99.90
10443;DHT22;5269;51.146;16.986;2023-11-21T22:20:52;0.50;99.90
10443;DHT22;5269;51.146;16.986;2023-11-21T22:27:01;0.60;99.90
10443;DHT22;5269;51.146;16.986;2023-11-21T22:29:35;0.60;99.90
10443;DHT22;5269;51.146;16.986;2023-11-21T22:32:12;0.70;99.90
10443;DHT22;5269;51.146;16.986;2023-11-21T22:34:39;0.70;99.90
10443;DHT22;5269;51.146;16.986;2023-11-21T22:37:11;0.60;99.90
10443;DHT22;5269;51.146;16.986;2023-11-21T22:39:42;0.60;99.90
10443;DHT22;5269;51.146;16.986;2023-11-21T22:42:13;0.70;99.90
10443;DHT22;5269;51.146;16.986;2023-11-21T22:44:42;0.70;99.90
10443;DHT22;5269;51.146;16.986;2023-11-21T22:47:13;0.60;99.90
10443;DHT22;5269;51.146;16.986;2023-11-21T22:49:45;0.60;99.90
10443;DHT22;5269;51.146;16.986;2023-11-21T22:52:21;0.60;99.90
10443;DHT22;5269;51.146;16.986;2023-11-21T22:54:51;0.60;99.90
10443;DHT22;5269;51.146;16.986;2023-11-21T22:57:20;0.50;99.90
10443;DHT22;5269;51.146;16.986;2023-11-21T22:59:52;0.40;99.90
10443;DHT22;5269;51.146;16.986;2023-11-21T23:02:22;0.50;99.90
10443;DHT22;5269;51.146;16.986;2023-11-21T23:04:50;0.50;99.90
10443;DHT22;5269;51.146;16.986;2023-11-21T23:07:23;0.50;99.90
10443;DHT22;5269;51.146;16.986;2023-11-21T23:09:51;0.60;99.90
10443;DHT22;5269;51.146;16.986;2023-11-21T23:12:24;0.60;99.90
10443;DHT22;5269;51.146;16.986;2023-11-21T23:14:51;0.60;99.90
10443;DHT22;5269;51.146;16.986;2023-11-21T23:17:24;0.60;99.90
10443;DHT22;5269;51.146;16.986;2023-11-21T23:19:53;0.60;99.90
10443;DHT22;5269;51.146;16.986;2023-11-21T23:22:22;0.70;99.90
10443;DHT22;5269;51.146;16.986;2023-11-21T23:24:51;0.60;99.90
10443;DHT22;5269;51.146;16.986;2023-11-21T23:27:22;0.60;99.90
10443;DHT22;5269;51.146;16.986;2023-11-21T23:29:51;0.60;99.90
10443;DHT22;5269;51.146;16.986;2023-11-21T23:32:21;0.60;99.90
10443;DHT22;5269;51.146;16.986;2023-11-21T23:34:51;0.50;99.90
10443;DHT22;5269;51.146;16.986;2023-11-21T23:37:33;0.40;99.90
10443;DHT22;5269;51.146;16.986;2023-11-21T23:40:03;0.40;99.90
10443;DHT22;5269;51.146;16.986;2023-11-21T23:42:33;0.40;99.90
10443;DHT22;5269;51.146;16.986;2023-11-21T23:47:23;0.40;99.90
10443;DHT22;5269;51.146;16.986;2023-11-21T23:51:14;0.40;99.90
10443;DHT22;5269;51.146;16.986;2023-11-21T23:53:44;0.40;99.90
10443;DHT22;5269;51.146;16.986;2023-11-21T23:59:23;0.40;99.90
